Time;durP1;ratioP1;P1;durP2;ratioP2;P2;SDS_P1;SDS_P2;PMS_P1;PMS_P2;Temp;Humidity;BMP_temperature;BMP_pressure;BME280_temperature;BME280_humidity;BME280_pressure;Samples;Min_cycle;Max_cycle;Signal;HPM_P1;HPM_P2
2021/12/27 00:01:32;;;;;;;;;;;2.40;99.90;;;;;;10242773;28;84930;-51
2021/12/27 00:06:33;;;;;;;;;;;2.40;99.90;;;;;;10242876;28;84133;-49
2021/12/27 00:11:33;;;;;;;;;;;2.50;99.90;;;;;;10242269;28;84927;-53
2021/12/27 00:16:34;;;;;;;;;;;2.50;99.90;;;;;;10241901;28;84122;-50
2021/12/27 00:21:35;;;;;;;;;;;2.50;99.90;;;;;;10240918;28;84364;-51
2021/12/27 00:26:35;;;;;;;;;;;2.50;99.90;;;;;;10242357;28;85023;-54
2021/12/27 00:31:36;;;;;;;;;;;2.60;99.90;;;;;;10239536;28;86826;-53
2021/12/27 00:36:36;;;;;;;;;;;2.60;99.90;;;;;;10242693;28;84918;-52
2021/12/27 00:41:37;;;;;;;;;;;2.60;99.90;;;;;;10241940;28;84884;-50
2021/12/27 00:46:38;;;;;;;;;;;2.60;99.90;;;;;;10242234;28;84070;-51
2021/12/27 00:51:38;;;;;;;;;;;2.60;99.90;;;;;;10242674;28;84495;-52
2021/12/27 00:56:39;;;;;;;;;;;2.70;99.90;;;;;;10241432;28;84114;-51
2021/12/27 01:01:39;;;;;;;;;;;2.70;99.90;;;;;;10242740;28;84845;-51
2021/12/27 01:06:40;;;;;;;;;;;2.70;99.90;;;;;;10241588;28;84094;-50
2021/12/27 01:12:10;;;;;;;;;;;2.70;99.90;;;;;;10241757;28;84138;-50
2021/12/27 01:17:07;;;;;;;;;;;2.80;99.90;;;;;;10240735;28;84984;-48
2021/12/27 01:22:07;;;;;;;;;;;2.80;99.90;;;;;;10239661;28;84158;-49
2021/12/27 01:27:08;;;;;;;;;;;2.90;99.90;;;;;;10241639;28;84818;-49
2021/12/27 01:32:08;;;;;;;;;;;2.80;99.90;;;;;;10246873;28;84978;-48
2021/12/27 01:37:09;;;;;;;;;;;2.90;99.90;;;;;;10251118;28;85064;-52
2021/12/27 01:42:09;;;;;;;;;;;2.90;99.90;;;;;;10251870;28;84945;-53
2021/12/27 01:47:10;;;;;;;;;;;2.80;99.90;;;;;;10250335;28;84359;-49
2021/12/27 01:52:10;;;;;;;;;;;2.90;99.90;;;;;;10245342;28;84106;-51
2021/12/27 01:57:11;;;;;;;;;;;2.90;99.90;;;;;;10248631;28;84110;-50
2021/12/27 02:02:12;;;;;;;;;;;2.90;99.90;;;;;;10247326;28;85030;-50
2021/12/27 02:07:12;;;;;;;;;;;2.80;99.90;;;;;;10246354;28;84755;-51
2021/12/27 02:12:13;;;;;;;;;;;2.90;99.90;;;;;;10246801;28;84129;-49
2021/12/27 02:17:17;;;;;;;;;;;2.80;99.90;;;;;;10240977;28;85015;-52
2021/12/27 02:22:18;;;;;;;;;;;2.80;99.90;;;;;;10245118;28;85171;-49
2021/12/27 02:27:18;;;;;;;;;;;2.80;99.90;;;;;;10246085;28;84983;-50
2021/12/27 02:32:19;;;;;;;;;;;2.80;99.90;;;;;;10244543;28;85103;-50
2021/12/27 02:37:20;;;;;;;;;;;2.70;99.90;;;;;;10245540;28;84832;-49
2021/12/27 02:42:20;;;;;;;;;;;2.70;99.90;;;;;;10243887;28;84043;-53
2021/12/27 02:47:21;;;;;;;;;;;2.70;99.90;;;;;;10245375;28;86595;-49
2021/12/27 02:52:21;;;;;;;;;;;2.80;99.90;;;;;;10243401;28;85044;-50
2021/12/27 02:57:22;;;;;;;;;;;2.80;99.90;;;;;;10244945;28;84115;-52
2021/12/27 03:02:25;;;;;;;;;;;2.80;99.90;;;;;;10245235;28;84168;-48
2021/12/27 03:07:26;;;;;;;;;;;2.80;99.90;;;;;;10243981;28;84171;-50
2021/12/27 03:12:26;;;;;;;;;;;2.80;99.90;;;;;;10244755;28;85066;-49
2021/12/27 03:17:27;;;;;;;;;;;2.90;99.90;;;;;;10243430;28;84941;-49
2021/12/27 03:22:28;;;;;;;;;;;2.90;99.90;;;;;;10243706;28;83981;-49
2021/12/27 03:27:28;;;;;;;;;;;2.80;99.90;;;;;;10243676;28;84785;-48
2021/12/27 03:32:31;;;;;;;;;;;2.80;99.90;;;;;;10244050;28;84946;-53
2021/12/27 03:37:31;;;;;;;;;;;2.90;99.90;;;;;;10242350;28;87023;-51
2021/12/27 03:42:32;;;;;;;;;;;3.00;99.90;;;;;;10244292;28;84082;-50
2021/12/27 03:47:32;;;;;;;;;;;3.00;99.90;;;;;;10243420;28;84106;-49
2021/12/27 03:52:33;;;;;;;;;;;3.00;99.90;;;;;;10243464;28;85065;-49
2021/12/27 03:57:36;;;;;;;;;;;3.00;99.90;;;;;;10242957;28;84888;-49
2021/12/27 04:02:37;;;;;;;;;;;3.00;99.90;;;;;;10243485;28;85004;-53
2021/12/27 04:07:38;;;;;;;;;;;3.00;99.90;;;;;;10242001;28;85073;-48
2021/12/27 04:12:39;;;;;;;;;;;2.90;99.90;;;;;;10240044;28;84857;-50
2021/12/27 04:17:40;;;;;;;;;;;3.00;99.90;;;;;;10243259;28;84891;-50
2021/12/27 04:22:40;;;;;;;;;;;3.00;99.90;;;;;;10242284;28;84863;-49
2021/12/27 04:27:41;;;;;;;;;;;3.00;99.90;;;;;;10242074;28;84158;-52
2021/12/27 04:32:41;;;;;;;;;;;3.00;99.90;;;;;;10243210;28;84396;-50
2021/12/27 04:37:42;;;;;;;;;;;3.00;99.90;;;;;;10241775;28;84893;-53
2021/12/27 04:42:46;;;;;;;;;;;3.00;99.90;;;;;;10243060;28;84835;-51
2021/12/27 04:47:46;;;;;;;;;;;3.00;99.90;;;;;;10245673;28;84207;-49
2021/12/27 04:52:47;;;;;;;;;;;3.10;99.90;;;;;;10241337;28;84062;-48
2021/12/27 04:57:48;;;;;;;;;;;3.10;99.90;;;;;;10240373;28;84080;-49
2021/12/27 05:02:48;;;;;;;;;;;3.10;99.90;;;;;;10241880;28;84027;-49
2021/12/27 05:07:49;;;;;;;;;;;3.10;99.90;;;;;;10247238;28;84906;-49
2021/12/27 05:12:49;;;;;;;;;;;3.10;99.90;;;;;;10245722;28;84303;-49
2021/12/27 05:17:50;;;;;;;;;;;3.10;99.90;;;;;;10247700;28;84041;-54
2021/12/27 05:22:50;;;;;;;;;;;3.30;99.90;;;;;;10239147;28;84222;-52
2021/12/27 05:27:51;;;;;;;;;;;3.30;99.90;;;;;;10244540;28;85325;-48
2021/12/27 05:32:52;;;;;;;;;;;3.30;99.90;;;;;;10247969;28;84206;-51
2021/12/27 05:37:52;;;;;;;;;;;3.20;99.90;;;;;;10243846;28;84578;-49
2021/12/27 05:42:54;;;;;;;;;;;3.30;99.90;;;;;;10168893;23;1219064;-44
2021/12/27 05:47:55;;;;;;;;;;;3.30;99.90;;;;;;10167498;28;85979;-49
2021/12/27 05:52:55;;;;;;;;;;;3.30;99.90;;;;;;10168780;28;84181;-46
2021/12/27 05:57:56;;;;;;;;;;;3.40;99.90;;;;;;10166999;28;84382;-46
2021/12/27 06:02:57;;;;;;;;;;;3.40;99.90;;;;;;10164831;28;84873;-48
2021/12/27 06:07:58;;;;;;;;;;;3.40;99.90;;;;;;10164554;28;84759;-47
2021/12/27 06:12:59;;;;;;;;;;;3.40;99.90;;;;;;10166278;28;84089;-49
2021/12/27 06:18:00;;;;;;;;;;;3.40;99.90;;;;;;10167762;28;84115;-48
2021/12/27 06:23:00;;;;;;;;;;;3.40;99.90;;;;;;10167672;28;84040;-47
2021/12/27 06:28:01;;;;;;;;;;;3.40;99.90;;;;;;10162420;28;84795;-51
2021/12/27 06:33:01;;;;;;;;;;;3.40;99.90;;;;;;10166539;28;84435;-51
2021/12/27 06:38:02;;;;;;;;;;;3.40;99.90;;;;;;10166197;28;85088;-53
2021/12/27 06:43:03;;;;;;;;;;;3.30;99.90;;;;;;10162050;28;85958;-51
2021/12/27 06:48:04;;;;;;;;;;;3.40;99.90;;;;;;10160972;28;84202;-49
2021/12/27 06:53:04;;;;;;;;;;;3.40;99.90;;;;;;10159275;28;84735;-49
2021/12/27 06:58:05;;;;;;;;;;;3.40;99.90;;;;;;10161446;28;84942;-48
2021/12/27 07:03:05;;;;;;;;;;;3.50;99.90;;;;;;10164084;28;84176;-51
2021/12/27 07:08:06;;;;;;;;;;;3.50;99.90;;;;;;10158944;28;86010;-49
2021/12/27 07:13:06;;;;;;;;;;;3.50;99.90;;;;;;10163763;28;84245;-47
2021/12/27 07:18:11;;;;;;;;;;;3.70;99.90;;;;;;10162319;28;84278;-55
2021/12/27 07:23:11;;;;;;;;;;;3.60;99.90;;;;;;10161771;28;84994;-49
2021/12/27 07:28:12;;;;;;;;;;;3.60;99.90;;;;;;10163810;28;85008;-56
2021/12/27 07:33:12;;;;;;;;;;;3.60;99.90;;;;;;10161427;28;84880;-58
2021/12/27 07:38:13;;;;;;;;;;;3.60;99.90;;;;;;10162037;28;85342;-53
2021/12/27 07:43:14;;;;;;;;;;;3.60;99.90;;;;;;10162219;28;84796;-59
2021/12/27 07:48:14;;;;;;;;;;;3.70;99.90;;;;;;10164760;28;84462;-56
2021/12/27 07:53:15;;;;;;;;;;;3.70;99.90;;;;;;10163772;28;84993;-54
2021/12/27 07:58:15;;;;;;;;;;;3.70;99.90;;;;;;10163848;28;84919;-52
2021/12/27 08:03:20;;;;;;;;;;;3.70;99.90;;;;;;10164394;28;84163;-55
2021/12/27 08:08:20;;;;;;;;;;;3.70;99.90;;;;;;10165707;28;84129;-54
2021/12/27 08:13:21;;;;;;;;;;;3.70;99.90;;;;;;10148665;28;86927;-57
2021/12/27 08:18:22;;;;;;;;;;;3.70;99.90;;;;;;10163213;28;87912;-49
2021/12/27 08:23:22;;;;;;;;;;;3.70;99.90;;;;;;10163321;28;86056;-52
2021/12/27 08:28:23;;;;;;;;;;;3.70;99.90;;;;;;10165114;28;84070;-54
2021/12/27 08:33:23;;;;;;;;;;;3.70;99.90;;;;;;10164886;28;84778;-54
2021/12/27 08:38:24;;;;;;;;;;;3.70;99.90;;;;;;10164270;28;84946;-56
2021/12/27 08:43:25;;;;;;;;;;;3.80;99.90;;;;;;10162682;28;84857;-55
2021/12/27 08:48:27;;;;;;;;;;;3.80;99.90;;;;;;10164870;28;84193;-53
2021/12/27 08:53:27;;;;;;;;;;;3.90;99.90;;;;;;10165086;28;84095;-52
2021/12/27 08:58:28;;;;;;;;;;;4.00;99.90;;;;;;10165400;28;84178;-53
2021/12/27 09:03:28;;;;;;;;;;;4.00;99.90;;;;;;10147153;28;85086;-54
2021/12/27 09:08:29;;;;;;;;;;;4.30;99.90;;;;;;10161827;28;85832;-53
2021/12/27 09:13:31;;;;;;;;;;;4.30;99.90;;;;;;10163949;28;84281;-53
2021/12/27 09:18:33;;;;;;;;;;;4.40;99.90;;;;;;10162578;28;84968;-55
2021/12/27 09:23:33;;;;;;;;;;;4.50;99.90;;;;;;10162472;28;84012;-55
2021/12/27 09:28:34;;;;;;;;;;;4.60;99.90;;;;;;10162623;28;84172;-55
2021/12/27 09:33:34;;;;;;;;;;;4.60;99.90;;;;;;10161908;28;86066;-55
2021/12/27 09:38:35;;;;;;;;;;;4.60;99.90;;;;;;10162409;28;84152;-52
2021/12/27 09:43:36;;;;;;;;;;;4.70;99.90;;;;;;10162739;28;85527;-54
2021/12/27 09:48:37;;;;;;;;;;;4.60;99.90;;;;;;10162242;28;84191;-52
2021/12/27 09:53:38;;;;;;;;;;;4.70;99.90;;;;;;10167534;28;84866;-51
2021/12/27 09:58:39;;;;;;;;;;;4.70;99.90;;;;;;10168456;28;84141;-55
2021/12/27 10:03:47;;;;;;;;;;;4.80;99.90;;;;;;10167719;28;84963;-49
2021/12/27 10:08:50;;;;;;;;;;;4.80;99.90;;;;;;10168584;28;84798;-57
2021/12/27 10:13:59;;;;;;;;;;;4.80;99.90;;;;;;10168461;28;84068;-55
2021/12/27 10:19:01;;;;;;;;;;;4.90;99.90;;;;;;10168503;28;84150;-58
2021/12/27 10:24:02;;;;;;;;;;;5.00;99.90;;;;;;10168362;28;83996;-56
2021/12/27 10:29:17;;;;;;;;;;;5.00;99.90;;;;;;10169216;28;84013;-56
2021/12/27 10:34:18;;;;;;;;;;;5.10;99.90;;;;;;10167556;28;84114;-55
2021/12/27 10:39:19;;;;;;;;;;;5.30;99.90;;;;;;10168996;28;84314;-55
2021/12/27 10:44:19;;;;;;;;;;;5.40;99.90;;;;;;10168612;28;84155;-52
2021/12/27 10:49:20;;;;;;;;;;;5.60;99.90;;;;;;10169090;28;84910;-55
2021/12/27 10:54:25;;;;;;;;;;;5.80;99.90;;;;;;10168589;28;84837;-55
2021/12/27 10:59:26;;;;;;;;;;;5.90;99.90;;;;;;10166881;28;84321;-55
2021/12/27 11:04:27;;;;;;;;;;;6.20;99.90;;;;;;10166909;28;84143;-56
2021/12/27 11:09:28;;;;;;;;;;;6.40;99.90;;;;;;10167061;28;84167;-57
2021/12/27 11:14:29;;;;;;;;;;;6.30;99.90;;;;;;10166026;28;85888;-55
2021/12/27 11:19:29;;;;;;;;;;;6.30;99.90;;;;;;10166857;28;84874;-57
2021/12/27 11:24:30;;;;;;;;;;;6.30;99.90;;;;;;10165706;28;84807;-57
2021/12/27 11:29:30;;;;;;;;;;;6.40;99.90;;;;;;10167331;28;84164;-55
2021/12/27 11:34:51;;;;;;;;;;;6.60;99.90;;;;;;10168214;28;84891;-52
2021/12/27 11:45:00;;;;;;;;;;;6.90;99.90;;;;;;10085299;29;84939;-48
2021/12/27 11:50:05;;;;;;;6.40;3.20;;;6.90;99.90;;;;;;10086456;28;85841;-48
2021/12/27 11:55:07;;;;;;;;;;;6.90;99.90;;;;;;10071490;29;84954;-48
2021/12/27 12:00:28;;;;;;;6.03;3.30;;;7.10;99.90;;;;;;10087815;29;85015;-48
2021/12/27 12:05:49;;;;;;;5.75;3.00;;;7.30;99.90;;;;;;10087989;28;84918;-49
2021/12/27 12:10:51;;;;;;;;;;;7.40;99.90;;;;;;10087268;28;86832;-48
2021/12/27 12:16:04;;;;;;;;;;;7.40;99.90;;;;;;10070321;29;87456;-50
2021/12/27 12:21:05;;;;;;;4.00;2.60;;;7.40;99.90;;;;;;10088408;28;85086;-50
2021/12/27 12:26:07;;;;;;;;;;;7.40;99.90;;;;;;10070618;29;85235;-48
2021/12/27 12:31:08;;;;;;;5.30;2.80;;;7.50;99.90;;;;;;10087477;28;83991;-48
2021/12/27 12:36:11;;;;;;;4.20;2.90;;;7.60;99.90;;;;;;10087390;29;84923;-51
2021/12/27 12:41:13;;;;;;;;;;;7.70;99.90;;;;;;10086963;28;84919;-49
2021/12/27 12:46:21;;;;;;;5.20;3.10;;;7.70;99.90;;;;;;10087545;29;84827;-47
2021/12/27 12:51:30;;;;;;;8.00;3.15;;;7.70;99.90;;;;;;10086829;29;84308;-51
2021/12/27 12:56:31;;;;;;;;;;;7.70;99.90;;;;;;10087703;29;84962;-49
2021/12/27 13:01:32;;;;;;;;;;;7.60;99.90;;;;;;10087016;29;84126;-48
2021/12/27 13:06:43;;;;;;;;;;;7.40;99.90;;;;;;10085633;28;85009;-54
2021/12/27 13:11:44;;;;;;;;;;;7.40;99.90;;;;;;10087846;29;84188;-48
2021/12/27 13:16:44;;;;;;;;;;;7.40;99.90;;;;;;10084848;28;85167;-49
2021/12/27 13:21:45;;;;;;;;;;;7.30;99.90;;;;;;10085362;28;85005;-47
2021/12/27 13:26:45;;;;;;;;;;;7.40;99.90;;;;;;10087906;28;86939;-48
2021/12/27 13:31:46;;;;;;;;;;;7.30;99.90;;;;;;10093948;29;84990;-50
2021/12/27 13:36:46;;;;;;;;;;;7.30;99.90;;;;;;10094021;28;84995;-50
2021/12/27 13:42:07;;;;;;;;;;;7.20;99.90;;;;;;10093452;28;85204;-50
2021/12/27 13:47:09;;;;;;;;;;;7.10;99.90;;;;;;10074897;28;84917;-49
2021/12/27 13:52:11;;;;;;;;;;;7.10;99.90;;;;;;10076817;28;86556;-49
2021/12/27 13:57:13;;;;;;;;;;;7.20;99.90;;;;;;10093919;28;84172;-53
2021/12/27 14:02:14;;;;;;;;;;;7.30;99.90;;;;;;10093842;28;84883;-50
2021/12/27 14:07:21;;;;;;;;;;;7.20;99.90;;;;;;10090563;28;86015;-49
2021/12/27 14:12:22;;;;;;;;;;;7.20;99.90;;;;;;10091954;28;84916;-53
2021/12/27 14:17:25;;;;;;;;;;;7.20;99.90;;;;;;10090573;29;87670;-48
2021/12/27 14:22:26;;;;;;;;;;;7.10;99.90;;;;;;10092295;29;85242;-53
2021/12/27 14:27:31;;;;;;;6.60;2.50;;;7.00;99.90;;;;;;10093394;28;83913;-49
2021/12/27 14:32:33;;;;;;;4.70;2.65;;;7.00;99.90;;;;;;10093235;28;84118;-49
2021/12/27 14:37:33;;;;;;;4.38;2.22;;;6.90;99.90;;;;;;10073225;28;84094;-48
2021/12/27 14:42:34;;;;;;;3.70;2.30;;;6.90;99.90;;;;;;10090642;29;84785;-52
2021/12/27 14:47:35;;;;;;;3.87;2.20;;;6.90;99.90;;;;;;10073120;29;87426;-48
2021/12/27 14:52:36;;;;;;;4.60;2.40;;;6.90;99.90;;;;;;10090382;28;84185;-48
2021/12/27 14:57:38;;;;;;;4.30;2.25;;;7.00;99.90;;;;;;10090583;29;84032;-50
2021/12/27 15:02:38;;;;;;;;;;;7.00;99.90;;;;;;10088315;29;87105;-51
2021/12/27 15:07:39;;;;;;;;;;;6.80;99.90;;;;;;10088213;29;85015;-48
2021/12/27 15:12:40;;;;;;;;;;;6.70;99.90;;;;;;10073113;29;85955;-49
2021/12/27 15:17:41;;;;;;;4.10;2.60;;;6.70;99.90;;;;;;10089273;29;86806;-50
2021/12/27 15:22:41;;;;;;;4.80;2.60;;;6.80;99.90;;;;;;10089500;28;84919;-53
2021/12/27 15:27:44;;;;;;;;;;;6.70;99.90;;;;;;10089941;29;85199;-51
2021/12/27 15:32:46;;;;;;;5.80;2.70;;;6.60;99.90;;;;;;10089690;28;84169;-49
2021/12/27 15:37:47;;;;;;;;;;;6.60;99.90;;;;;;10089103;29;84147;-48
2021/12/27 15:42:49;;;;;;;;;;;6.60;99.90;;;;;;10089261;29;84022;-50
2021/12/27 15:47:49;;;;;;;4.70;2.90;;;6.70;99.90;;;;;;10086569;28;86052;-49
2021/12/27 15:52:50;;;;;;;;;;;6.70;99.90;;;;;;10089141;29;84717;-47
2021/12/27 15:57:51;;;;;;;;;;;6.70;99.90;;;;;;10072763;29;84581;-48
2021/12/27 16:02:52;;;;;;;;;;;6.60;99.90;;;;;;10089499;29;84911;-46
2021/12/27 16:07:53;;;;;;;;;;;6.60;99.90;;;;;;10087862;29;84769;-47
2021/12/27 16:12:54;;;;;;;;;;;6.50;99.90;;;;;;10088077;29;84736;-49
2021/12/27 16:17:58;;;;;;;5.90;3.10;;;6.50;99.90;;;;;;10088310;29;85081;-51
2021/12/27 16:22:59;;;;;;;;;;;6.50;99.90;;;;;;10071023;29;84750;-47
2021/12/27 16:28:00;;;;;;;;;;;6.40;99.90;;;;;;10085801;29;85910;-49
2021/12/27 16:33:01;;;;;;;;;;;6.40;99.90;;;;;;10087780;28;84198;-50
2021/12/27 16:38:01;;;;;;;;;;;6.40;99.90;;;;;;10086964;29;85974;-49
2021/12/27 16:43:02;;;;;;;;;;;6.30;99.90;;;;;;10084907;29;86165;-48
2021/12/27 16:48:07;;;;;;;;;;;6.40;99.90;;;;;;10086351;29;84058;-52
2021/12/27 16:53:08;;;;;;;4.90;2.85;;;6.40;99.90;;;;;;10087179;28;84712;-51
2021/12/27 16:58:09;;;;;;;;;;;6.40;99.90;;;;;;10085828;29;84963;-50
2021/12/27 17:03:09;;;;;;;6.47;3.47;;;6.50;99.90;;;;;;10091629;29;84078;-50
2021/12/27 17:08:10;;;;;;;5.37;2.63;;;6.60;99.90;;;;;;10093273;28;84036;-50
2021/12/27 17:13:11;;;;;;;6.60;3.30;;;6.60;99.90;;;;;;10093736;29;84954;-47
2021/12/27 17:18:13;;;;;;;4.90;3.10;;;6.60;99.90;;;;;;10093293;28;84133;-49
2021/12/27 17:23:14;;;;;;;5.50;2.80;;;6.70;99.90;;;;;;10076483;28;84299;-52
2021/12/27 17:28:15;;;;;;;;;;;6.60;99.90;;;;;;10091945;28;85034;-53
2021/12/27 17:33:17;;;;;;;;;;;6.70;99.90;;;;;;10092917;29;84368;-48
2021/12/27 17:38:18;;;;;;;;;;;6.70;99.90;;;;;;10092742;28;84020;-47
2021/12/27 17:43:20;;;;;;;;;;;6.80;99.90;;;;;;10181100;23;87298;-54
2021/12/27 17:48:21;;;;;;;4.10;2.70;;;6.80;99.90;;;;;;10210025;28;84148;-55
2021/12/27 17:53:22;;;;;;;3.90;2.70;;;6.80;99.90;;;;;;10211666;28;84582;-56
2021/12/27 17:58:24;;;;;;;4.50;3.10;;;6.80;99.90;;;;;;10211152;28;84898;-56
2021/12/27 18:03:28;;;;;;;;;;;6.80;99.90;;;;;;10210529;28;84846;-53
2021/12/27 18:08:29;;;;;;;;;;;6.70;99.90;;;;;;10210930;28;84984;-52
2021/12/27 18:13:30;;;;;;;5.90;3.60;;;6.70;99.90;;;;;;10210899;28;85057;-52
2021/12/27 18:18:31;;;;;;;6.77;3.23;;;6.70;99.90;;;;;;10209001;28;87816;-54
2021/12/27 18:23:33;;;;;;;5.43;3.07;;;6.70;99.90;;;;;;10211166;28;84168;-56
2021/12/27 18:28:33;;;;;;;6.45;2.80;;;6.70;99.90;;;;;;10211024;28;84953;-50
2021/12/27 18:33:35;;;;;;;5.70;2.75;;;6.60;99.90;;;;;;10209115;28;84251;-55
2021/12/27 18:38:36;;;;;;;5.27;2.70;;;6.70;99.90;;;;;;10211404;28;83905;-56
2021/12/27 18:43:37;;;;;;;6.90;3.70;;;6.60;99.90;;;;;;10209897;28;84296;-54
2021/12/27 18:48:37;;;;;;;5.63;3.10;;;6.60;99.90;;;;;;10209479;28;84148;-52
2021/12/27 18:53:38;;;;;;;4.80;3.05;;;6.60;99.90;;;;;;10209987;28;84891;-58
2021/12/27 18:58:41;;;;;;;4.40;3.05;;;6.60;99.90;;;;;;10209856;28;84292;-56
2021/12/27 19:03:41;;;;;;;4.45;2.85;;;6.60;99.90;;;;;;10209668;28;85012;-52
2021/12/27 19:08:46;;;;;;;4.70;3.17;;;6.60;99.90;;;;;;10208146;28;84148;-54
2021/12/27 19:13:47;;;;;;;4.30;3.10;;;6.60;99.90;;;;;;10209555;28;84799;-56
2021/12/27 19:18:49;;;;;;;4.70;3.10;;;6.70;99.90;;;;;;10209180;28;84936;-54
2021/12/27 19:23:49;;;;;;;6.65;3.80;;;6.70;99.90;;;;;;10207630;28;85100;-53
2021/12/27 19:28:50;;;;;;;4.90;3.70;;;6.70;99.90;;;;;;10207739;28;84864;-56
2021/12/27 19:33:50;;;;;;;6.00;3.50;;;6.70;99.90;;;;;;10206792;28;84865;-56
2021/12/27 19:38:52;;;;;;;7.90;4.00;;;6.70;99.90;;;;;;10206952;28;84937;-52
2021/12/27 19:43:52;;;;;;;;;;;6.70;99.90;;;;;;10207494;28;84131;-58
2021/12/27 19:48:53;;;;;;;6.70;3.20;;;6.70;99.90;;;;;;10207583;28;84248;-56
2021/12/27 19:53:54;;;;;;;8.70;3.60;;;6.70;99.90;;;;;;10208281;28;84246;-56
2021/12/27 19:58:54;;;;;;;6.00;3.80;;;6.70;99.90;;;;;;10208672;28;84069;-56
2021/12/27 20:03:55;;;;;;;5.75;3.35;;;6.80;99.90;;;;;;10208068;28;84804;-56
2021/12/27 20:08:56;;;;;;;7.90;4.00;;;6.80;99.90;;;;;;10207744;28;89350;-57
2021/12/27 20:13:56;;;;;;;6.90;3.90;;;6.80;99.90;;;;;;10207263;28;84012;-58
2021/12/27 20:18:57;;;;;;;5.60;3.70;;;6.80;99.90;;;;;;10205837;28;85833;-59
2021/12/27 20:24:00;;;;;;;7.73;3.77;;;6.80;99.90;;;;;;10207099;28;84847;-55
2021/12/27 20:29:01;;;;;;;11.43;4.50;;;6.80;99.90;;;;;;10207111;28;84235;-57
2021/12/27 20:34:02;;;;;;;8.75;4.05;;;6.80;99.90;;;;;;10207551;28;84117;-57
2021/12/27 20:39:04;;;;;;;6.60;3.80;;;6.80;99.90;;;;;;10206809;28;84230;-55
2021/12/27 20:44:05;;;;;;;6.30;3.50;;;6.80;99.90;;;;;;10206605;28;85040;-53
2021/12/27 20:49:06;;;;;;;6.95;3.90;;;6.70;99.90;;;;;;10206552;28;85303;-55
2021/12/27 20:54:06;;;;;;;;;;;6.70;99.90;;;;;;10207354;28;84141;-58
2021/12/27 20:59:07;;;;;;;9.55;4.00;;;6.70;99.90;;;;;;10206459;28;85286;-55
2021/12/27 21:04:09;;;;;;;8.43;5.00;;;6.70;99.90;;;;;;10204953;28;84954;-56
2021/12/27 21:09:12;;;;;;;6.80;3.90;;;6.70;99.90;;;;;;10204957;28;84470;-55
2021/12/27 21:14:13;;;;;;;8.50;4.30;;;6.70;99.90;;;;;;10206281;28;84115;-56
2021/12/27 21:19:13;;;;;;;;;;;6.70;99.90;;;;;;10205155;28;84769;-54
2021/12/27 21:24:14;;;;;;;;;;;6.70;99.90;;;;;;10205622;28;85188;-57
2021/12/27 21:29:17;;;;;;;;;;;6.70;99.90;;;;;;10204685;28;84072;-55
2021/12/27 21:34:17;;;;;;;9.40;4.90;;;6.70;99.90;;;;;;10205262;28;84007;-57
2021/12/27 21:39:18;;;;;;;;;;;6.70;99.90;;;;;;10204794;28;85238;-56
2021/12/27 21:44:19;;;;;;;;;;;6.80;99.90;;;;;;10205029;28;84920;-55
2021/12/27 21:49:20;;;;;;;;;;;6.70;99.90;;;;;;10209134;28;84371;-56
2021/12/27 21:54:20;;;;;;;;;;;6.80;99.90;;;;;;10209908;28;84996;-54
2021/12/27 21:59:22;;;;;;;9.60;5.80;;;6.90;99.90;;;;;;10211279;28;84081;-55
2021/12/27 22:04:22;;;;;;;;;;;7.00;99.90;;;;;;10210503;28;84830;-55
2021/12/27 22:09:23;;;;;;;;;;;7.00;99.90;;;;;;10210238;28;84092;-55
2021/12/27 22:14:26;;;;;;;9.40;5.00;;;7.10;99.90;;;;;;10210495;28;85071;-55
2021/12/27 22:19:26;;;;;;;10.60;5.20;;;7.10;99.90;;;;;;10210942;28;84483;-54
2021/12/27 22:24:27;;;;;;;9.55;5.25;;;7.20;99.90;;;;;;10210168;28;84032;-56
2021/12/27 22:29:27;;;;;;;;;;;7.30;99.90;;;;;;10211081;28;84770;-56
2021/12/27 22:34:28;;;;;;;9.00;5.30;;;7.30;99.90;;;;;;10210352;28;84990;-56
2021/12/27 22:39:28;;;;;;;;;;;7.40;99.90;;;;;;10209368;28;84798;-56
2021/12/27 22:44:29;;;;;;;11.10;5.60;;;7.40;99.90;;;;;;10207917;28;86071;-52
2021/12/27 22:49:30;;;;;;;;;;;7.40;99.90;;;;;;10208138;28;84558;-54
2021/12/27 22:54:30;;;;;;;;;;;7.40;99.90;;;;;;10207333;28;85860;-55
2021/12/27 22:59:31;;;;;;;;;;;7.40;99.90;;;;;;10208103;28;84112;-54
2021/12/27 23:04:31;;;;;;;;;;;7.50;99.90;;;;;;10208688;28;84130;-55
2021/12/27 23:09:32;;;;;;;9.60;5.60;;;7.50;99.90;;;;;;10209155;28;84985;-53
2021/12/27 23:14:33;;;;;;;11.15;6.20;;;7.50;99.90;;;;;;10207891;28;86056;-53
2021/12/27 23:19:34;;;;;;;10.00;5.20;;;7.50;99.90;;;;;;10208969;28;85033;-54
2021/12/27 23:24:34;;;;;;;;;;;7.60;99.90;;;;;;10208047;28;84293;-55
2021/12/27 23:29:35;;;;;;;;;;;7.50;99.90;;;;;;10209216;28;84156;-55
2021/12/27 23:34:36;;;;;;;10.05;5.85;;;7.50;99.90;;;;;;10209346;28;84133;-57
2021/12/27 23:39:37;;;;;;;;;;;7.50;99.90;;;;;;10208422;28;84118;-55
2021/12/27 23:44:38;;;;;;;;;;;7.40;99.90;;;;;;10229868;23;84808;-54
2021/12/27 23:49:38;;;;;;;7.40;4.80;;;7.30;99.90;;;;;;10207036;28;84027;-53
2021/12/27 23:54:39;;;;;;;;;;;7.40;99.90;;;;;;10207194;28;84818;-55
2021/12/27 23:59:39;;;;;;;11.50;4.90;;;7.40;99.90;;;;;;10208330;28;84158;-55
